createdAt,value
2019-02-18T00:00:11.063Z,0.00
2019-02-18T00:01:11.104Z,0.00
2019-02-18T00:03:04.095Z,0.00
2019-02-18T00:04:04.135Z,0.00
2019-02-18T00:05:57.130Z,0.00
2019-02-18T00:06:57.170Z,0.00
2019-02-18T00:08:50.141Z,0.00
2019-02-18T00:09:50.195Z,0.00
2019-02-18T00:11:43.206Z,0.00
2019-02-18T00:12:43.234Z,0.00
2019-02-18T00:14:36.209Z,0.00
2019-02-18T00:15:36.264Z,0.00
2019-02-18T00:17:29.244Z,0.00
2019-02-18T00:18:29.293Z,0.00
2019-02-18T00:20:22.271Z,0.00
2019-02-18T00:21:22.322Z,0.00
2019-02-18T00:23:15.302Z,0.00
2019-02-18T00:24:15.360Z,0.00
2019-02-18T00:26:08.339Z,0.00
2019-02-18T00:27:08.391Z,0.00
2019-02-18T00:29:01.378Z,0.00
2019-02-18T00:30:01.433Z,0.00
2019-02-18T00:31:54.411Z,0.00
2019-02-18T00:32:54.461Z,0.00
2019-02-18T00:34:47.435Z,0.00
2019-02-18T00:35:47.549Z,0.00
2019-02-18T00:37:40.474Z,0.00
2019-02-18T00:38:40.524Z,0.00
2019-02-18T00:40:33.790Z,0.00
2019-02-18T00:41:33.555Z,0.00
2019-02-18T00:43:26.528Z,0.00
2019-02-18T00:44:26.584Z,0.00
2019-02-18T00:46:19.564Z,0.00
2019-02-18T00:47:19.613Z,0.00
2019-02-18T00:49:12.591Z,0.00
2019-02-18T00:50:12.647Z,0.00
2019-02-18T00:52:05.630Z,0.00
2019-02-18T00:53:05.677Z,0.00
2019-02-18T00:54:58.662Z,0.00
2019-02-18T00:55:58.705Z,0.00
2019-02-18T00:57:51.693Z,0.00
2019-02-18T00:58:51.741Z,0.00
2019-02-18T01:00:44.734Z,0.00
2019-02-18T01:01:44.791Z,0.00
2019-02-18T01:03:37.769Z,0.00
2019-02-18T01:04:37.821Z,0.00
2019-02-18T01:06:30.799Z,0.00
2019-02-18T01:07:34.884Z,0.00
2019-02-18T01:09:23.820Z,0.00
2019-02-18T01:10:23.876Z,0.00
2019-02-18T01:12:16.853Z,0.00
2019-02-18T01:13:16.901Z,0.00
2019-02-18T01:15:09.878Z,0.00
2019-02-18T01:16:09.934Z,0.00
2019-02-18T01:18:02.928Z,0.00
2019-02-18T01:19:02.985Z,0.00
2019-02-18T01:20:55.951Z,0.00
2019-02-18T01:21:56.006Z,0.00
2019-02-18T01:23:48.987Z,0.00
2019-02-18T01:24:49.036Z,0.00
2019-02-18T01:26:42.005Z,0.00
2019-02-18T01:27:42.064Z,0.00
2019-02-18T01:29:35.041Z,0.00
2019-02-18T01:30:35.088Z,0.00
2019-02-18T01:32:28.073Z,0.00
2019-02-18T01:33:28.120Z,0.00
2019-02-18T01:35:21.092Z,0.00
2019-02-18T01:36:23.000Z,0.00
2019-02-18T01:38:14.124Z,0.00
2019-02-18T01:39:14.171Z,0.00
2019-02-18T01:41:07.150Z,0.00
2019-02-18T01:42:07.204Z,0.00
2019-02-18T01:44:00.193Z,0.00
2019-02-18T01:45:00.325Z,0.00
2019-02-18T01:46:53.210Z,0.00
2019-02-18T01:47:53.262Z,0.00
2019-02-18T01:49:46.241Z,0.00
2019-02-18T01:50:46.290Z,0.00
2019-02-18T01:52:39.268Z,0.00
2019-02-18T01:53:39.317Z,0.00
2019-02-18T01:55:32.291Z,0.00
2019-02-18T01:56:32.345Z,0.00
2019-02-18T01:58:25.326Z,0.00
2019-02-18T01:59:25.380Z,0.00
2019-02-18T02:01:18.351Z,0.00
2019-02-18T02:02:18.401Z,0.00
2019-02-18T02:04:11.388Z,0.00
2019-02-18T02:05:11.452Z,0.00
2019-02-18T02:07:04.414Z,0.00
2019-02-18T02:08:04.468Z,0.00
2019-02-18T02:09:57.448Z,0.00
2019-02-18T02:10:57.496Z,0.00
2019-02-18T02:12:50.978Z,0.00
2019-02-18T02:13:51.028Z,0.00
2019-02-18T02:15:44.016Z,0.00
2019-02-18T02:16:44.063Z,0.00
2019-02-18T02:18:37.051Z,0.00
2019-02-18T02:19:37.097Z,0.00
2019-02-18T02:21:30.091Z,0.00
2019-02-18T02:22:30.143Z,0.00
2019-02-18T02:24:23.106Z,0.00
2019-02-18T02:25:23.146Z,0.00
2019-02-18T02:27:16.127Z,0.00
2019-02-18T02:28:16.184Z,0.00
2019-02-18T02:30:09.161Z,0.00
2019-02-18T02:31:09.208Z,0.00
2019-02-18T02:33:02.178Z,0.00
2019-02-18T02:34:02.233Z,0.00
2019-02-18T02:35:55.215Z,0.00
2019-02-18T02:36:55.273Z,0.00
2019-02-18T02:38:48.244Z,0.00
2019-02-18T02:39:48.289Z,0.00
2019-02-18T02:41:41.261Z,0.00
2019-02-18T02:42:41.316Z,0.00
2019-02-18T02:44:34.293Z,0.00
2019-02-18T02:45:34.345Z,0.00
2019-02-18T02:47:27.317Z,0.00
2019-02-18T02:48:27.376Z,0.00
2019-02-18T02:50:20.348Z,0.00
2019-02-18T02:51:20.400Z,0.00
2019-02-18T02:53:13.368Z,0.00
2019-02-18T02:54:13.422Z,0.00
2019-02-18T02:56:06.408Z,0.00
2019-02-18T02:57:06.453Z,0.00
2019-02-18T02:58:59.434Z,0.00
2019-02-18T02:59:59.487Z,0.00
2019-02-18T03:01:52.456Z,0.00
2019-02-18T03:02:52.508Z,0.00
2019-02-18T03:04:45.495Z,0.00
2019-02-18T03:05:45.544Z,0.00
2019-02-18T03:07:38.517Z,0.00
2019-02-18T03:08:38.576Z,0.00
2019-02-18T03:10:31.558Z,0.00
2019-02-18T03:11:31.866Z,0.00
2019-02-18T03:13:26.078Z,0.00
2019-02-18T03:14:26.128Z,0.00
2019-02-18T03:16:19.125Z,0.00
2019-02-18T03:17:19.175Z,0.00
2019-02-18T03:19:12.156Z,0.00
2019-02-18T03:20:12.200Z,0.00
2019-02-18T03:22:05.177Z,0.00
2019-02-18T03:23:05.225Z,0.00
2019-02-18T03:24:58.201Z,0.00
2019-02-18T03:25:58.252Z,0.00
2019-02-18T03:27:51.232Z,0.00
2019-02-18T03:28:51.286Z,0.00
2019-02-18T03:30:44.274Z,0.00
2019-02-18T03:31:44.322Z,0.00
2019-02-18T03:33:37.290Z,0.00
2019-02-18T03:34:37.352Z,0.00
2019-02-18T03:36:30.325Z,0.00
2019-02-18T03:37:30.377Z,0.00
2019-02-18T03:39:23.349Z,0.00
2019-02-18T03:40:23.400Z,0.00
2019-02-18T03:42:16.402Z,0.00
2019-02-18T03:43:16.432Z,0.00
2019-02-18T03:45:09.404Z,0.00
2019-02-18T03:46:09.464Z,0.00
2019-02-18T03:48:02.428Z,0.00
2019-02-18T03:49:02.483Z,0.00
2019-02-18T03:50:55.467Z,0.00
2019-02-18T03:51:55.515Z,0.00
2019-02-18T03:53:48.474Z,0.00
2019-02-18T03:54:48.536Z,0.00
2019-02-18T03:56:41.516Z,0.00
2019-02-18T03:57:41.561Z,0.00
2019-02-18T03:59:34.534Z,0.00
2019-02-18T04:00:34.586Z,0.00
2019-02-18T04:02:27.564Z,0.00
2019-02-18T04:03:27.609Z,0.00
2019-02-18T04:05:20.587Z,0.00
2019-02-18T04:06:20.635Z,0.00
2019-02-18T04:08:13.615Z,0.00
2019-02-18T04:09:13.662Z,0.00
2019-02-18T04:11:06.647Z,0.00
2019-02-18T04:12:06.692Z,0.00
2019-02-18T04:13:59.665Z,0.00
2019-02-18T04:14:59.771Z,0.00
2019-02-18T04:16:52.699Z,0.00
2019-02-18T04:17:52.759Z,0.00
2019-02-18T04:19:45.720Z,0.00
2019-02-18T04:20:45.776Z,0.00
2019-02-18T04:22:38.754Z,0.00
2019-02-18T04:23:38.802Z,0.00
2019-02-18T04:25:31.774Z,0.00
2019-02-18T04:26:31.826Z,0.00
2019-02-18T04:28:24.804Z,0.00
2019-02-18T04:29:24.852Z,0.00
2019-02-18T04:31:17.833Z,0.00
2019-02-18T04:32:17.883Z,0.00
2019-02-18T04:34:10.858Z,0.00
2019-02-18T04:35:10.909Z,0.00
2019-02-18T04:37:03.890Z,0.00
2019-02-18T04:38:03.937Z,0.00
2019-02-18T04:39:56.923Z,0.00
2019-02-18T04:40:56.963Z,0.00
2019-02-18T04:42:49.942Z,0.00
2019-02-18T04:43:49.990Z,0.00
2019-02-18T04:45:42.965Z,0.00
2019-02-18T04:46:43.069Z,0.00
2019-02-18T04:48:35.997Z,0.00
2019-02-18T04:49:36.045Z,0.00
2019-02-18T04:51:29.019Z,0.00
2019-02-18T04:52:29.071Z,0.00
2019-02-18T04:54:22.053Z,0.00
2019-02-18T04:55:22.103Z,0.00
2019-02-18T04:57:15.082Z,0.00
2019-02-18T04:58:15.128Z,0.00
2019-02-18T05:00:08.584Z,0.00
2019-02-18T05:01:08.157Z,0.00
2019-02-18T05:03:01.132Z,0.00
2019-02-18T05:04:01.182Z,0.00
2019-02-18T05:05:54.181Z,0.00
2019-02-18T05:06:54.215Z,0.00
2019-02-18T05:08:47.190Z,0.00
2019-02-18T05:09:47.242Z,0.00
2019-02-18T05:11:40.211Z,0.00
2019-02-18T05:12:40.268Z,0.00
2019-02-18T05:14:33.243Z,0.00
2019-02-18T05:15:33.292Z,0.00
2019-02-18T05:17:26.267Z,0.00
2019-02-18T05:18:26.318Z,0.00
2019-02-18T05:20:19.284Z,0.00
2019-02-18T05:21:19.339Z,0.00
2019-02-18T05:23:12.312Z,0.00
2019-02-18T05:24:12.363Z,0.00
2019-02-18T05:26:05.337Z,0.00
2019-02-18T05:27:05.388Z,0.00
2019-02-18T05:28:58.368Z,0.00
2019-02-18T05:29:58.410Z,0.00
2019-02-18T05:31:51.392Z,0.00
2019-02-18T05:32:51.445Z,0.00
2019-02-18T05:34:44.425Z,0.00
2019-02-18T05:35:44.470Z,0.00
2019-02-18T05:37:37.451Z,0.00
2019-02-18T05:38:37.499Z,0.00
2019-02-18T05:40:30.486Z,0.00
2019-02-18T05:41:31.352Z,0.00
2019-02-18T05:43:23.507Z,0.00
2019-02-18T05:44:23.551Z,0.00
2019-02-18T05:46:16.540Z,0.00
2019-02-18T05:47:16.582Z,0.00
2019-02-18T05:49:09.562Z,0.00
2019-02-18T05:50:09.611Z,0.00
2019-02-18T05:52:02.582Z,0.00
2019-02-18T05:53:02.637Z,0.00
2019-02-18T05:54:55.624Z,0.00
2019-02-18T05:55:55.671Z,0.00
2019-02-18T05:57:48.673Z,0.00
2019-02-18T05:58:48.701Z,0.00
2019-02-18T06:00:41.672Z,0.00
2019-02-18T06:01:41.731Z,0.00
2019-02-18T06:03:34.702Z,0.00
2019-02-18T06:04:34.753Z,0.00
2019-02-18T06:06:27.725Z,0.00
2019-02-18T06:07:27.787Z,0.00
2019-02-18T06:09:29.211Z,4.00
2019-02-18T06:10:20.811Z,0.00
2019-02-18T06:12:13.761Z,4.00
2019-02-18T06:13:13.828Z,4.00
2019-02-18T06:15:06.825Z,8.00
2019-02-18T06:16:06.846Z,8.00
2019-02-18T06:17:59.823Z,8.00
2019-02-18T06:18:59.875Z,12.00
2019-02-18T06:20:53.358Z,16.00
2019-02-18T06:21:53.418Z,20.00
2019-02-18T06:23:46.390Z,28.00
2019-02-18T06:24:46.434Z,32.00
2019-02-18T06:26:39.419Z,40.00
2019-02-18T06:27:39.475Z,52.00
2019-02-18T06:29:32.446Z,64.00
2019-02-18T06:30:32.505Z,76.00
2019-02-18T06:32:25.475Z,92.00
2019-02-18T06:33:28.080Z,108.00
2019-02-18T06:35:18.508Z,132.00
2019-02-18T06:36:18.556Z,144.00
2019-02-18T06:38:11.551Z,172.00
2019-02-18T06:39:11.588Z,192.00
2019-02-18T06:41:04.561Z,224.00
2019-02-18T06:42:04.613Z,240.00
2019-02-18T06:43:57.596Z,280.00
2019-02-18T06:44:57.643Z,304.00
2019-02-18T06:46:50.614Z,348.00
2019-02-18T06:47:50.669Z,376.00
2019-02-18T06:49:43.654Z,420.00
2019-02-18T06:50:43.694Z,452.00
2019-02-18T06:52:36.685Z,504.00
2019-02-18T06:53:36.732Z,532.00
2019-02-18T06:55:29.704Z,592.00
2019-02-18T06:56:29.750Z,620.00
2019-02-18T06:58:22.725Z,684.00
2019-02-18T06:59:22.777Z,716.00
2019-02-18T07:01:15.772Z,780.00
2019-02-18T07:02:15.858Z,812.00
2019-02-18T07:04:08.793Z,876.00
2019-02-18T07:05:08.838Z,912.00
2019-02-18T07:07:01.809Z,976.00
2019-02-18T07:08:01.864Z,1008.00
2019-02-18T07:09:54.862Z,1076.00
2019-02-18T07:10:54.892Z,1112.00
2019-02-18T07:12:47.873Z,1172.00
2019-02-18T07:13:47.938Z,1208.00
2019-02-18T07:15:40.915Z,1264.00
2019-02-18T07:16:40.962Z,1296.00
2019-02-18T07:18:33.931Z,1356.00
2019-02-18T07:19:33.987Z,1384.00
2019-02-18T07:21:27.469Z,1444.00
2019-02-18T07:22:27.520Z,1472.00
2019-02-18T07:24:20.536Z,1528.00
2019-02-18T07:25:20.555Z,1556.00
2019-02-18T07:27:13.512Z,1612.00
2019-02-18T07:28:13.592Z,1632.00
2019-02-18T07:30:06.553Z,1692.00
2019-02-18T07:31:06.612Z,1720.00
2019-02-18T07:32:59.566Z,1768.00
2019-02-18T07:33:59.617Z,1792.00
2019-02-18T07:35:52.594Z,1844.00
2019-02-18T07:36:52.645Z,1872.00
2019-02-18T07:38:45.619Z,1928.00
2019-02-18T07:39:45.676Z,1956.00
2019-02-18T07:41:38.676Z,2004.00
2019-02-18T07:42:38.708Z,2032.00
2019-02-18T07:44:31.685Z,2080.00
2019-02-18T07:45:31.730Z,2108.00
2019-02-18T07:47:24.710Z,2160.00
2019-02-18T07:48:24.760Z,2196.00
2019-02-18T07:50:20.613Z,2300.00
2019-02-18T07:51:17.779Z,2376.00
2019-02-18T07:53:10.753Z,2648.00
2019-02-18T07:54:10.810Z,3008.00
2019-02-18T07:56:03.790Z,4636.00
2019-02-18T07:57:03.836Z,5560.00
2019-02-18T07:58:56.816Z,5924.00
2019-02-18T07:59:56.876Z,5948.00
2019-02-18T08:01:49.855Z,5980.00
2019-02-18T08:02:49.903Z,6020.00
2019-02-18T08:04:42.895Z,6080.00
2019-02-18T08:05:42.951Z,6112.00
2019-02-18T08:07:35.932Z,6180.00
2019-02-18T08:08:35.985Z,6208.00
2019-02-18T08:10:28.969Z,6252.00
2019-02-18T08:11:29.018Z,6260.00
2019-02-18T08:13:21.994Z,6308.00
2019-02-18T08:14:22.041Z,6320.00
2019-02-18T08:16:15.039Z,6384.00
2019-02-18T08:17:15.084Z,6408.00
2019-02-18T08:19:08.059Z,6440.00
2019-02-18T08:20:08.115Z,6440.00
2019-02-18T08:22:01.117Z,6464.00
2019-02-18T08:23:01.166Z,6504.00
2019-02-18T08:24:54.151Z,6564.00
2019-02-18T08:25:54.209Z,6600.00
2019-02-18T08:27:47.198Z,6624.00
2019-02-18T08:28:47.265Z,6632.00
2019-02-18T08:30:40.229Z,6640.00
2019-02-18T08:31:40.290Z,6656.00
2019-02-18T08:33:33.284Z,6668.00
2019-02-18T08:34:33.330Z,6676.00
2019-02-18T08:36:26.333Z,6664.00
2019-02-18T08:37:26.386Z,6636.00
2019-02-18T08:39:19.377Z,6576.00
2019-02-18T08:40:22.430Z,6544.00
2019-02-18T08:42:12.441Z,6476.00
2019-02-18T08:43:12.475Z,6452.00
2019-02-18T08:45:05.471Z,6360.00
2019-02-18T08:46:05.563Z,6308.00
2019-02-18T08:47:58.509Z,6204.00
2019-02-18T08:48:58.559Z,6160.00
2019-02-18T08:50:51.543Z,6092.00
2019-02-18T08:51:51.605Z,6032.00
2019-02-18T08:53:44.593Z,6008.00
2019-02-18T08:54:44.642Z,6012.00
2019-02-18T08:56:37.645Z,6028.00
2019-02-18T08:57:37.706Z,6000.00
2019-02-18T08:59:30.708Z,5884.00
2019-02-18T09:00:30.740Z,5840.00
2019-02-18T09:02:23.724Z,5804.00
2019-02-18T09:03:23.777Z,5800.00
2019-02-18T09:05:16.806Z,5816.00
2019-02-18T09:06:16.822Z,5832.00
2019-02-18T09:08:09.809Z,5844.00
2019-02-18T09:09:09.876Z,5828.00
2019-02-18T09:11:02.856Z,5796.00
2019-02-18T09:12:02.909Z,5768.00
2019-02-18T09:13:55.908Z,5648.00
2019-02-18T09:14:55.958Z,5576.00
2019-02-18T09:16:48.951Z,5444.00
2019-02-18T09:17:49.001Z,5376.00
2019-02-18T09:19:41.982Z,5176.00
2019-02-18T09:20:42.043Z,5064.00
2019-02-18T09:22:35.023Z,4784.00
2019-02-18T09:23:35.085Z,4504.00
2019-02-18T09:25:28.066Z,3956.00
2019-02-18T09:26:28.125Z,3708.00
2019-02-18T09:28:21.114Z,3192.00
2019-02-18T09:29:21.163Z,3116.00
2019-02-18T09:31:14.145Z,3104.00
2019-02-18T09:32:14.205Z,3104.00
2019-02-18T09:34:07.196Z,3100.00
2019-02-18T09:35:07.246Z,3100.00
2019-02-18T09:37:00.233Z,3100.00
2019-02-18T09:38:00.285Z,3100.00
2019-02-18T09:39:53.272Z,3096.00
2019-02-18T09:40:53.322Z,3100.00
2019-02-18T09:42:46.344Z,3104.00
2019-02-18T09:43:46.363Z,3100.00
2019-02-18T09:45:39.346Z,3092.00
2019-02-18T09:46:40.432Z,3088.00
2019-02-18T09:48:32.388Z,3088.00
2019-02-18T09:49:32.439Z,3088.00
2019-02-18T09:51:25.423Z,3084.00
2019-02-18T09:52:25.473Z,3084.00
2019-02-18T09:54:18.486Z,3080.00
2019-02-18T09:55:18.515Z,3076.00
2019-02-18T09:57:11.492Z,3072.00
2019-02-18T09:58:11.573Z,3068.00
2019-02-18T10:00:04.546Z,3076.00
2019-02-18T10:01:04.603Z,3060.00
2019-02-18T10:02:57.601Z,3064.00
2019-02-18T10:03:57.635Z,3064.00
2019-02-18T10:05:50.619Z,3060.00
2019-02-18T10:06:50.684Z,3060.00
2019-02-18T10:08:43.671Z,3056.00
2019-02-18T10:09:43.720Z,3044.00
2019-02-18T10:11:36.698Z,3032.00
2019-02-18T10:12:36.753Z,3020.00
2019-02-18T10:14:29.745Z,3024.00
2019-02-18T10:15:29.792Z,3016.00
2019-02-18T10:17:22.772Z,3000.00
2019-02-18T10:18:22.832Z,2992.00
2019-02-18T10:20:15.816Z,2984.00
2019-02-18T10:21:15.872Z,2976.00
2019-02-18T10:23:08.847Z,2972.00
2019-02-18T10:24:08.901Z,2964.00
2019-02-18T10:26:01.889Z,2960.00
2019-02-18T10:27:02.054Z,2956.00
2019-02-18T10:28:54.923Z,2940.00
2019-02-18T10:29:54.972Z,2936.00
2019-02-18T10:31:47.959Z,2928.00
2019-02-18T10:32:48.018Z,2928.00
2019-02-18T10:34:41.002Z,2928.00
2019-02-18T10:35:41.052Z,2924.00
2019-02-18T10:37:34.030Z,2920.00
2019-02-18T10:38:34.094Z,2916.00
2019-02-18T10:40:27.089Z,2916.00
2019-02-18T10:41:27.137Z,2920.00
2019-02-18T10:43:20.115Z,2916.00
2019-02-18T10:44:20.185Z,2920.00
2019-02-18T10:46:13.163Z,2920.00
2019-02-18T10:47:13.222Z,2916.00
2019-02-18T10:49:19.091Z,2920.00
2019-02-18T10:50:06.253Z,2920.00
2019-02-18T10:51:59.232Z,2916.00
2019-02-18T10:52:59.287Z,2916.00
2019-02-18T10:54:52.288Z,2900.00
2019-02-18T10:55:52.350Z,2912.00
2019-02-18T10:57:46.319Z,2900.00
2019-02-18T10:58:46.385Z,2900.00
2019-02-18T11:00:39.379Z,2892.00
2019-02-18T11:01:39.424Z,2900.00
2019-02-18T11:03:32.414Z,2908.00
2019-02-18T11:04:32.471Z,2912.00
2019-02-18T11:06:25.475Z,2912.00
2019-02-18T11:07:25.524Z,2908.00
2019-02-18T11:09:18.520Z,2904.00
2019-02-18T11:10:18.585Z,2900.00
2019-02-18T11:12:11.551Z,2884.00
2019-02-18T11:13:11.606Z,2868.00
2019-02-18T11:15:04.597Z,2856.00
2019-02-18T11:16:04.642Z,2840.00
2019-02-18T11:17:57.629Z,2832.00
2019-02-18T11:18:57.685Z,2828.00
2019-02-18T11:20:50.671Z,2824.00
2019-02-18T11:21:50.723Z,2820.00
2019-02-18T11:23:43.713Z,2816.00
2019-02-18T11:24:43.754Z,2804.00
2019-02-18T11:26:36.751Z,2788.00
2019-02-18T11:27:36.804Z,2784.00
2019-02-18T11:29:29.786Z,2764.00
2019-02-18T11:30:29.840Z,2760.00
2019-02-18T11:32:22.827Z,2748.00
2019-02-18T11:33:22.881Z,2740.00
2019-02-18T11:35:15.888Z,2736.00
2019-02-18T11:36:15.916Z,2728.00
2019-02-18T11:38:08.905Z,2728.00
2019-02-18T11:39:08.956Z,2720.00
2019-02-18T11:41:01.944Z,2716.00
2019-02-18T11:42:01.996Z,2704.00
2019-02-18T11:43:54.975Z,2688.00
2019-02-18T11:44:55.034Z,2688.00
2019-02-18T11:46:48.043Z,2668.00
2019-02-18T11:47:48.096Z,2664.00
2019-02-18T11:49:41.087Z,2664.00
2019-02-18T11:50:41.150Z,2656.00
2019-02-18T11:52:34.121Z,2648.00
2019-02-18T11:53:34.177Z,2636.00
2019-02-18T11:55:27.164Z,2632.00
2019-02-18T11:56:27.220Z,2632.00
2019-02-18T11:58:20.207Z,2628.00
2019-02-18T11:59:24.337Z,2624.00
2019-02-18T12:01:13.270Z,2616.00
2019-02-18T12:02:13.317Z,2600.00
2019-02-18T12:04:06.400Z,2592.00
2019-02-18T12:05:06.355Z,2588.00
2019-02-18T12:06:59.341Z,2576.00
2019-02-18T12:07:59.393Z,2572.00
2019-02-18T12:09:52.375Z,2568.00
2019-02-18T12:10:52.427Z,2560.00
2019-02-18T12:12:45.427Z,2552.00
2019-02-18T12:13:45.474Z,2548.00
2019-02-18T12:15:38.495Z,2560.00
2019-02-18T12:16:38.561Z,2548.00
2019-02-18T12:18:31.550Z,2528.00
2019-02-18T12:19:31.690Z,2528.00
2019-02-18T12:21:24.600Z,2516.00
2019-02-18T12:22:24.655Z,2512.00
2019-02-18T12:24:17.637Z,2504.00
2019-02-18T12:25:17.694Z,2500.00
2019-02-18T12:27:10.770Z,2492.00
2019-02-18T12:28:10.749Z,2488.00
2019-02-18T12:30:03.721Z,2476.00
2019-02-18T12:31:03.783Z,2468.00
2019-02-18T12:32:56.778Z,2460.00
2019-02-18T12:33:56.845Z,2448.00
2019-02-18T12:35:49.805Z,2432.00
2019-02-18T12:36:49.874Z,2432.00
2019-02-18T12:38:42.851Z,2424.00
2019-02-18T12:39:42.906Z,2432.00
2019-02-18T12:41:35.895Z,2428.00
2019-02-18T12:42:35.944Z,2424.00
2019-02-18T12:44:28.947Z,2408.00
2019-02-18T12:45:29.009Z,2400.00
2019-02-18T12:47:22.112Z,2384.00
2019-02-18T12:48:22.163Z,2384.00
2019-02-18T12:50:15.150Z,2388.00
2019-02-18T12:51:15.212Z,2384.00
2019-02-18T12:53:08.199Z,2376.00
2019-02-18T12:54:08.251Z,2368.00
2019-02-18T12:56:01.235Z,2360.00
2019-02-18T12:57:01.294Z,2360.00
2019-02-18T12:58:54.898Z,2348.00
2019-02-18T12:59:54.567Z,2344.00
2019-02-18T13:01:47.315Z,2336.00
2019-02-18T13:02:47.384Z,2332.00
2019-02-18T13:04:40.385Z,2320.00
2019-02-18T13:05:40.425Z,2316.00
2019-02-18T13:07:33.411Z,2308.00
2019-02-18T13:08:33.468Z,2300.00
2019-02-18T13:10:34.659Z,2296.00
2019-02-18T13:11:26.525Z,2292.00
2019-02-18T13:13:19.499Z,2288.00
2019-02-18T13:14:19.551Z,2280.00
2019-02-18T13:16:12.539Z,2268.00
2019-02-18T13:17:12.597Z,2264.00
2019-02-18T13:19:05.601Z,2256.00
2019-02-18T13:20:05.647Z,2252.00
2019-02-18T13:21:58.628Z,2252.00
2019-02-18T13:22:58.687Z,2248.00
2019-02-18T13:24:51.684Z,2232.00
2019-02-18T13:25:51.740Z,2220.00
2019-02-18T13:27:44.760Z,2216.00
2019-02-18T13:28:44.777Z,2204.00
2019-02-18T13:30:37.762Z,2196.00
2019-02-18T13:31:37.822Z,2192.00
2019-02-18T13:33:30.813Z,2188.00
2019-02-18T13:34:30.865Z,2180.00
2019-02-18T13:36:23.850Z,2168.00
2019-02-18T13:37:23.909Z,2160.00
2019-02-18T13:39:16.923Z,2152.00
2019-02-18T13:40:16.967Z,2148.00
2019-02-18T13:42:09.950Z,2148.00
2019-02-18T13:43:10.018Z,2140.00
2019-02-18T13:45:03.005Z,2132.00
2019-02-18T13:46:03.056Z,2124.00
2019-02-18T13:47:56.036Z,2108.00
2019-02-18T13:48:56.095Z,2104.00
2019-02-18T13:50:49.097Z,2092.00
2019-02-18T13:51:56.439Z,2092.00
2019-02-18T13:53:42.160Z,2084.00
2019-02-18T13:54:42.210Z,2084.00
2019-02-18T13:56:35.202Z,2080.00
2019-02-18T13:57:35.261Z,2076.00
2019-02-18T13:59:28.254Z,2072.00
2019-02-18T14:00:28.318Z,2064.00
2019-02-18T14:02:21.465Z,2052.00
2019-02-18T14:03:21.393Z,2044.00
2019-02-18T14:05:14.386Z,2040.00
2019-02-18T14:06:14.437Z,2032.00
2019-02-18T14:08:07.458Z,2016.00
2019-02-18T14:09:07.493Z,2012.00
2019-02-18T14:11:00.495Z,2012.00
2019-02-18T14:12:00.570Z,2004.00
2019-02-18T14:13:53.549Z,1988.00
2019-02-18T14:14:53.600Z,1984.00
2019-02-18T14:16:46.588Z,1972.00
2019-02-18T14:17:46.641Z,1968.00
2019-02-18T14:19:40.149Z,1956.00
2019-02-18T14:20:40.197Z,1952.00
2019-02-18T14:22:33.184Z,1948.00
2019-02-18T14:23:33.245Z,1944.00
2019-02-18T14:25:26.239Z,1940.00
2019-02-18T14:26:26.289Z,1936.00
2019-02-18T14:28:19.280Z,1920.00
2019-02-18T14:29:19.334Z,1912.00
2019-02-18T14:31:12.321Z,1900.00
2019-02-18T14:32:12.798Z,1884.00
2019-02-18T14:34:07.050Z,1864.00
2019-02-18T14:35:05.425Z,1856.00
2019-02-18T14:36:58.450Z,1844.00
2019-02-18T14:37:58.498Z,1836.00
2019-02-18T14:39:51.478Z,1820.00
2019-02-18T14:40:51.535Z,1812.00
2019-02-18T14:42:44.523Z,1804.00
2019-02-18T14:43:44.582Z,1796.00
2019-02-18T14:45:37.571Z,1788.00
2019-02-18T14:46:37.626Z,1776.00
2019-02-18T14:48:30.626Z,1760.00
2019-02-18T14:49:30.672Z,1756.00
2019-02-18T14:51:23.658Z,1740.00
2019-02-18T14:52:23.737Z,1732.00
2019-02-18T14:54:16.715Z,1724.00
2019-02-18T14:55:16.770Z,1716.00
2019-02-18T14:57:09.753Z,1708.00
2019-02-18T14:58:09.814Z,1704.00
2019-02-18T15:00:02.811Z,1688.00
2019-02-18T15:01:02.859Z,1680.00
2019-02-18T15:02:55.847Z,1660.00
2019-02-18T15:03:55.908Z,1640.00
2019-02-18T15:05:48.893Z,1628.00
2019-02-18T15:06:48.945Z,1624.00
2019-02-18T15:08:41.964Z,1608.00
2019-02-18T15:09:42.017Z,1592.00
2019-02-18T15:11:35.004Z,1576.00
2019-02-18T15:12:35.060Z,1576.00
2019-02-18T15:14:28.055Z,1568.00
2019-02-18T15:15:28.110Z,1560.00
2019-02-18T15:17:21.111Z,1552.00
2019-02-18T15:18:21.155Z,1532.00
2019-02-18T15:20:14.671Z,1508.00
2019-02-18T15:21:14.721Z,1504.00
2019-02-18T15:23:08.212Z,1496.00
2019-02-18T15:24:08.268Z,1484.00
2019-02-18T15:26:01.262Z,1476.00
2019-02-18T15:27:01.313Z,1468.00
2019-02-18T15:28:54.329Z,1452.00
2019-02-18T15:29:54.360Z,1444.00
2019-02-18T15:31:47.376Z,1432.00
2019-02-18T15:32:47.426Z,1420.00
2019-02-18T15:34:40.414Z,1408.00
2019-02-18T15:35:40.467Z,1400.00
2019-02-18T15:37:33.449Z,1384.00
2019-02-18T15:38:33.508Z,1372.00
2019-02-18T15:40:26.503Z,1352.00
2019-02-18T15:41:26.552Z,1336.00
2019-02-18T15:43:19.535Z,1308.00
2019-02-18T15:44:19.598Z,1296.00
2019-02-18T15:46:12.607Z,1272.00
2019-02-18T15:47:12.661Z,1256.00
2019-02-18T15:49:05.645Z,1236.00
2019-02-18T15:50:05.704Z,1228.00
2019-02-18T15:51:58.703Z,1204.00
2019-02-18T15:52:58.750Z,1188.00
2019-02-18T15:54:52.248Z,1160.00
2019-02-18T15:55:54.130Z,1140.00
2019-02-18T15:57:45.789Z,1096.00
2019-02-18T15:58:45.850Z,1076.00
2019-02-18T16:00:38.840Z,1024.00
2019-02-18T16:01:38.895Z,996.00
2019-02-18T16:03:31.881Z,948.00
2019-02-18T16:04:31.939Z,924.00
2019-02-18T16:06:24.942Z,872.00
2019-02-18T16:07:24.991Z,848.00
2019-02-18T16:09:18.009Z,792.00
2019-02-18T16:10:18.032Z,768.00
2019-02-18T16:12:11.024Z,716.00
2019-02-18T16:13:11.079Z,696.00
2019-02-18T16:15:04.072Z,668.00
2019-02-18T16:16:04.129Z,656.00
2019-02-18T16:17:57.107Z,632.00
2019-02-18T16:18:57.165Z,620.00
2019-02-18T16:20:50.155Z,584.00
2019-02-18T16:21:50.248Z,560.00
2019-02-18T16:23:43.209Z,516.00
2019-02-18T16:24:43.269Z,492.00
2019-02-18T16:26:36.262Z,452.00
2019-02-18T16:27:36.309Z,432.00
2019-02-18T16:29:29.315Z,392.00
2019-02-18T16:30:29.353Z,372.00
2019-02-18T16:32:22.350Z,336.00
2019-02-18T16:33:22.404Z,320.00
2019-02-18T16:35:15.391Z,296.00
2019-02-18T16:36:15.451Z,284.00
2019-02-18T16:38:08.973Z,252.00
2019-02-18T16:39:09.020Z,236.00
2019-02-18T16:41:02.026Z,208.00
2019-02-18T16:42:02.082Z,196.00
2019-02-18T16:43:55.068Z,172.00
2019-02-18T16:44:55.127Z,160.00
2019-02-18T16:46:48.114Z,136.00
2019-02-18T16:47:48.173Z,128.00
2019-02-18T16:49:41.167Z,108.00
2019-02-18T16:50:41.222Z,96.00
2019-02-18T16:52:34.212Z,84.00
2019-02-18T16:53:34.266Z,76.00
2019-02-18T16:55:27.247Z,60.00
2019-02-18T16:56:27.322Z,52.00
2019-02-18T16:58:20.299Z,40.00
2019-02-18T16:59:20.355Z,36.00
2019-02-18T17:01:13.352Z,28.00
2019-02-18T17:02:13.396Z,24.00
2019-02-18T17:04:06.384Z,20.00
2019-02-18T17:05:06.442Z,16.00
2019-02-18T17:06:59.432Z,8.00
2019-02-18T17:07:59.482Z,8.00
2019-02-18T17:09:52.466Z,8.00
2019-02-18T17:10:52.523Z,4.00
2019-02-18T17:12:45.530Z,4.00
2019-02-18T17:13:45.568Z,4.00
2019-02-18T17:15:38.555Z,4.00
2019-02-18T17:16:38.608Z,4.00
2019-02-18T17:18:31.600Z,0.00
2019-02-18T17:19:31.649Z,0.00
2019-02-18T17:21:24.649Z,0.00
2019-02-18T17:22:24.694Z,0.00
2019-02-18T17:24:17.689Z,0.00
2019-02-18T17:25:17.741Z,0.00
2019-02-18T17:27:10.730Z,0.00
2019-02-18T17:28:10.780Z,0.00
2019-02-18T17:30:03.767Z,0.00
2019-02-18T17:31:03.828Z,0.00
2019-02-18T17:32:56.814Z,0.00
2019-02-18T17:33:56.867Z,0.00
2019-02-18T17:35:49.900Z,0.00
2019-02-18T17:36:49.951Z,0.00
2019-02-18T17:38:43.813Z,0.00
2019-02-18T17:39:43.868Z,0.00
2019-02-18T17:41:36.846Z,0.00
2019-02-18T17:42:36.908Z,0.00
2019-02-18T17:44:29.897Z,0.00
2019-02-18T17:45:29.947Z,0.00
2019-02-18T17:47:22.938Z,0.00
2019-02-18T17:48:22.988Z,0.00
2019-02-18T17:50:15.974Z,0.00
2019-02-18T17:51:16.023Z,0.00
2019-02-18T17:53:09.016Z,0.00
2019-02-18T17:54:09.062Z,0.00
2019-02-18T17:56:02.059Z,0.00
2019-02-18T17:57:02.100Z,0.00
2019-02-18T17:58:55.095Z,0.00
2019-02-18T17:59:55.169Z,0.00
2019-02-18T18:01:48.139Z,0.00
2019-02-18T18:02:48.198Z,0.00
2019-02-18T18:04:41.185Z,0.00
2019-02-18T18:05:41.243Z,0.00
2019-02-18T18:07:34.217Z,0.00
2019-02-18T18:08:34.273Z,0.00
2019-02-18T18:10:27.265Z,0.00